createdAt,value
2019-05-18T00:00:34.230Z,12.30
2019-05-18T00:03:06.156Z,12.37
2019-05-18T00:05:37.636Z,13.13
2019-05-18T00:08:09.477Z,15.20
2019-05-18T00:10:41.086Z,13.90
2019-05-18T00:13:12.689Z,10.17
2019-05-18T00:15:44.174Z,12.50
2019-05-18T00:18:15.715Z,12.67
2019-05-18T00:20:47.252Z,11.53
2019-05-18T00:23:18.754Z,11.53
2019-05-18T00:25:50.340Z,10.13
2019-05-18T00:28:23.004Z,10.07
2019-05-18T00:30:54.619Z,10.67
2019-05-18T00:33:26.434Z,9.07
2019-05-18T00:35:58.868Z,10.43
2019-05-18T00:38:30.363Z,11.03
2019-05-18T00:41:01.848Z,11.90
2019-05-18T00:43:33.345Z,10.23
2019-05-18T00:46:05.226Z,10.73
2019-05-18T00:48:36.712Z,10.87
2019-05-18T00:51:08.197Z,10.73
2019-05-18T00:53:39.768Z,10.93
2019-05-18T00:56:11.246Z,12.03
2019-05-18T00:58:42.811Z,11.00
2019-05-18T01:01:15.265Z,9.20
2019-05-18T01:03:46.669Z,10.43
2019-05-18T01:06:18.385Z,9.23
2019-05-18T01:08:50.214Z,9.33
2019-05-18T01:11:21.696Z,9.03
2019-05-18T01:13:53.214Z,8.60
2019-05-18T01:16:25.104Z,9.23
2019-05-18T01:18:56.673Z,10.00
2019-05-18T01:21:29.221Z,8.67
2019-05-18T01:24:00.725Z,9.40
2019-05-18T01:26:32.480Z,8.87
2019-05-18T01:29:06.625Z,9.37
2019-05-18T01:31:38.140Z,9.80
2019-05-18T01:34:09.623Z,7.73
2019-05-18T01:36:41.433Z,8.60
2019-05-18T01:39:12.943Z,9.77
2019-05-18T01:41:44.423Z,7.63
2019-05-18T01:44:15.922Z,7.73
2019-05-18T01:46:47.407Z,8.93
2019-05-18T01:49:18.846Z,9.50
2019-05-18T01:51:50.365Z,9.00
2019-05-18T01:54:21.881Z,7.70
2019-05-18T01:56:53.375Z,9.93
2019-05-18T01:59:24.875Z,8.03
2019-05-18T02:01:56.355Z,8.60
2019-05-18T02:04:27.925Z,7.70
2019-05-18T02:06:59.522Z,8.03
2019-05-18T02:09:30.892Z,8.80
2019-05-18T02:12:02.383Z,8.23
2019-05-18T02:14:34.902Z,7.97
2019-05-18T02:17:06.673Z,8.37
2019-05-18T02:19:38.171Z,6.80
2019-05-18T02:22:09.982Z,10.13
2019-05-18T02:24:41.485Z,8.43
2019-05-18T02:27:12.921Z,8.10
2019-05-18T02:29:44.703Z,10.77
2019-05-18T02:32:16.453Z,10.03
2019-05-18T02:34:47.967Z,12.13
2019-05-18T02:37:19.360Z,7.27
2019-05-18T02:39:54.932Z,7.40
2019-05-18T02:42:30.518Z,8.10
2019-05-18T02:44:59.578Z,7.33
2019-05-18T02:47:31.101Z,9.93
2019-05-18T02:50:02.580Z,8.23
2019-05-18T02:52:34.081Z,7.40
2019-05-18T02:55:06.342Z,8.93
2019-05-18T02:57:37.848Z,8.43
2019-05-18T03:00:10.575Z,8.00
2019-05-18T03:02:42.037Z,10.43
2019-05-18T03:05:14.076Z,9.10
2019-05-18T03:07:45.561Z,8.63
2019-05-18T03:10:17.469Z,8.60
2019-05-18T03:12:48.975Z,7.20
2019-05-18T03:15:20.459Z,7.90
2019-05-18T03:17:52.015Z,8.37
2019-05-18T03:20:23.503Z,8.10
2019-05-18T03:22:54.893Z,8.67
2019-05-18T03:25:26.393Z,9.07
2019-05-18T03:27:57.894Z,8.30
2019-05-18T03:30:29.444Z,8.23
2019-05-18T03:33:00.886Z,8.33
2019-05-18T03:35:32.758Z,8.50
2019-05-18T03:38:04.338Z,8.10
2019-05-18T03:40:35.794Z,9.37
2019-05-18T03:43:07.341Z,8.93
2019-05-18T03:45:38.762Z,8.70
2019-05-18T03:48:10.272Z,7.70
2019-05-18T03:50:41.744Z,9.40
2019-05-18T03:53:13.218Z,9.13
2019-05-18T03:55:44.681Z,9.60
2019-05-18T03:58:16.061Z,8.90
2019-05-18T04:00:47.488Z,9.80
2019-05-18T04:03:19.217Z,9.17
2019-05-18T04:05:51.116Z,8.53
2019-05-18T04:08:22.661Z,8.30
2019-05-18T04:10:54.394Z,9.10
2019-05-18T04:13:25.846Z,9.23
2019-05-18T04:15:57.290Z,9.40
2019-05-18T04:18:28.748Z,8.67
2019-05-18T04:21:06.246Z,9.07
2019-05-18T04:23:50.914Z,8.93
2019-05-18T04:26:23.454Z,7.13
2019-05-18T04:28:54.834Z,9.47
2019-05-18T04:31:26.261Z,7.37
2019-05-18T04:33:57.770Z,8.17
2019-05-18T04:36:29.532Z,6.77
2019-05-18T04:39:00.829Z,7.77
2019-05-18T04:41:33.625Z,6.83
2019-05-18T04:44:05.464Z,9.33
2019-05-18T04:46:36.971Z,8.43
2019-05-18T04:49:08.430Z,6.97
2019-05-18T04:51:39.916Z,6.57
2019-05-18T04:54:11.727Z,7.03
2019-05-18T04:56:43.421Z,6.17
2019-05-18T04:59:14.936Z,7.30
2019-05-18T05:01:46.531Z,7.83
2019-05-18T05:04:18.005Z,7.37
2019-05-18T05:06:49.571Z,7.63
2019-05-18T05:09:20.953Z,6.20
2019-05-18T05:11:52.952Z,8.20
2019-05-18T05:14:24.211Z,6.43
2019-05-18T05:16:55.917Z,8.03
2019-05-18T05:19:27.399Z,6.10
2019-05-18T05:21:59.142Z,6.37
2019-05-18T05:24:30.687Z,7.00
2019-05-18T05:27:02.230Z,6.50
2019-05-18T05:29:33.695Z,7.43
2019-05-18T05:32:05.512Z,6.80
2019-05-18T05:34:37.118Z,6.30
2019-05-18T05:37:08.949Z,7.63
2019-05-18T05:39:40.539Z,5.90
2019-05-18T05:42:11.989Z,6.00
2019-05-18T05:44:43.316Z,7.87
2019-05-18T05:47:14.902Z,7.30
2019-05-18T05:49:46.214Z,6.37
2019-05-18T05:52:18.063Z,6.77
2019-05-18T05:54:49.750Z,8.80
2019-05-18T05:57:21.208Z,7.00
2019-05-18T05:59:52.980Z,6.67
2019-05-18T06:02:24.442Z,7.87
2019-05-18T06:04:55.946Z,6.77
2019-05-18T06:07:27.421Z,7.33
2019-05-18T06:09:59.150Z,5.60
2019-05-18T06:12:30.538Z,5.77
2019-05-18T06:15:01.885Z,5.90
2019-05-18T06:17:33.311Z,6.90
2019-05-18T06:20:05.191Z,6.13
2019-05-18T06:22:38.360Z,6.07
2019-05-18T06:25:10.838Z,5.63
2019-05-18T06:27:42.362Z,6.20
2019-05-18T06:30:14.198Z,7.97
2019-05-18T06:32:45.602Z,8.17
2019-05-18T06:35:17.189Z,5.73
2019-05-18T06:37:48.572Z,7.83
2019-05-18T06:40:20.375Z,7.97
2019-05-18T06:42:51.997Z,6.77
2019-05-18T06:45:23.676Z,5.93
2019-05-18T06:47:55.192Z,6.70
2019-05-18T06:50:31.269Z,7.50
2019-05-18T06:53:02.901Z,5.10
2019-05-18T06:55:35.552Z,5.93
2019-05-18T06:58:07.525Z,5.50
2019-05-18T07:00:39.308Z,7.27
2019-05-18T07:03:10.993Z,7.27
2019-05-18T07:05:45.575Z,8.07
2019-05-18T07:08:15.789Z,6.93
2019-05-18T07:10:47.331Z,6.07
2019-05-18T07:13:18.735Z,6.20
2019-05-18T07:15:50.256Z,5.77
2019-05-18T07:18:21.840Z,5.70
2019-05-18T07:20:53.194Z,6.10
2019-05-18T07:23:24.602Z,6.03
2019-05-18T07:25:56.589Z,6.93
2019-05-18T07:28:27.991Z,6.03
2019-05-18T07:30:59.441Z,7.67
2019-05-18T07:33:30.833Z,5.67
2019-05-18T07:36:02.220Z,6.00
2019-05-18T07:38:33.469Z,5.67
2019-05-18T07:41:05.763Z,7.60
2019-05-18T07:43:38.158Z,5.87
2019-05-18T07:46:09.678Z,6.30
2019-05-18T07:48:41.075Z,7.27
2019-05-18T07:51:12.494Z,8.80
2019-05-18T07:53:43.959Z,5.33
2019-05-18T07:56:15.401Z,6.83
2019-05-18T07:58:47.246Z,5.40
2019-05-18T08:01:18.962Z,4.73
2019-05-18T08:03:50.418Z,5.70
2019-05-18T08:06:22.286Z,5.67
2019-05-18T08:08:53.929Z,7.17
2019-05-18T08:11:25.417Z,5.58
2019-05-18T08:13:56.898Z,6.12
2019-05-18T08:16:28.322Z,5.67
2019-05-18T08:18:59.817Z,5.45
2019-05-18T08:21:31.661Z,6.10
2019-05-18T08:24:03.107Z,6.12
2019-05-18T08:26:34.745Z,5.70
2019-05-18T08:29:06.253Z,4.80
2019-05-18T08:31:37.973Z,5.40
2019-05-18T08:34:09.430Z,5.58
2019-05-18T08:36:40.927Z,5.55
2019-05-18T08:39:12.393Z,6.10
2019-05-18T08:41:43.934Z,5.97
2019-05-18T08:44:15.274Z,6.22
2019-05-18T08:46:46.750Z,5.10
2019-05-18T08:49:18.180Z,4.97
2019-05-18T08:51:49.656Z,6.22
2019-05-18T08:54:21.655Z,6.60
2019-05-18T08:56:53.177Z,6.15
2019-05-18T08:59:24.646Z,4.97
2019-05-18T09:01:56.235Z,5.15
2019-05-18T09:04:27.547Z,6.03
2019-05-18T09:06:58.956Z,7.90
2019-05-18T09:09:30.518Z,5.15
2019-05-18T09:12:02.057Z,4.65
2019-05-18T09:14:33.984Z,4.90
2019-05-18T09:17:05.474Z,4.85
2019-05-18T09:19:37.088Z,5.33
2019-05-18T09:22:22.440Z,4.53
2019-05-18T09:24:41.863Z,4.78
2019-05-18T09:27:13.379Z,4.45
2019-05-18T09:29:44.927Z,4.40
2019-05-18T09:32:16.382Z,4.53
2019-05-18T09:34:47.811Z,4.80
2019-05-18T09:37:19.286Z,5.00
2019-05-18T09:39:50.799Z,4.72
2019-05-18T09:42:22.272Z,4.92
2019-05-18T09:44:54.184Z,4.55
2019-05-18T09:47:25.781Z,5.25
2019-05-18T09:49:57.338Z,5.25
2019-05-18T09:52:44.340Z,4.20
2019-05-18T09:55:02.365Z,5.72
2019-05-18T09:57:34.890Z,4.92
2019-05-18T10:00:07.608Z,4.92
2019-05-18T10:02:39.091Z,4.85
2019-05-18T10:05:11.015Z,7.62
2019-05-18T10:07:42.576Z,6.08
2019-05-18T10:10:15.261Z,5.22
2019-05-18T10:12:46.847Z,4.30
2019-05-18T10:15:18.730Z,4.70
2019-05-18T10:17:50.064Z,5.65
2019-05-18T10:20:21.888Z,5.15
2019-05-18T10:23:10.390Z,4.05
2019-05-18T10:25:28.067Z,4.85
2019-05-18T10:27:59.850Z,4.78
2019-05-18T10:30:31.172Z,4.90
2019-05-18T10:33:02.766Z,4.70
2019-05-18T10:35:34.264Z,4.60
2019-05-18T10:38:06.107Z,4.17
2019-05-18T10:40:37.767Z,3.95
2019-05-18T10:43:09.548Z,5.00
2019-05-18T10:45:44.796Z,4.25
2019-05-18T10:48:14.456Z,5.75
2019-05-18T10:50:46.514Z,3.85
2019-05-18T10:53:28.400Z,3.20
2019-05-18T10:55:51.627Z,3.37
2019-05-18T10:58:23.104Z,3.17
2019-05-18T11:00:54.843Z,4.65
2019-05-18T11:03:26.774Z,3.87
2019-05-18T11:05:58.243Z,3.70
2019-05-18T11:08:29.684Z,4.05
2019-05-18T11:11:01.539Z,4.10
2019-05-18T11:13:33.031Z,4.17
2019-05-18T11:16:04.588Z,5.70
2019-05-18T11:18:36.119Z,3.02
2019-05-18T11:21:07.676Z,3.70
2019-05-18T11:23:43.616Z,4.72
2019-05-18T11:26:14.092Z,3.02
2019-05-18T11:28:45.838Z,4.55
2019-05-18T11:31:17.325Z,4.12
2019-05-18T11:33:48.789Z,5.33
2019-05-18T11:36:20.269Z,4.87
2019-05-18T11:38:51.907Z,3.12
2019-05-18T11:41:23.406Z,4.28
2019-05-18T11:43:54.806Z,3.42
2019-05-18T11:46:29.557Z,3.70
2019-05-18T11:49:01.113Z,2.75
2019-05-18T11:51:32.605Z,3.33
2019-05-18T11:54:04.172Z,4.53
2019-05-18T11:56:36.262Z,5.45
2019-05-18T11:59:07.651Z,4.40
2019-05-18T12:01:39.104Z,5.35
2019-05-18T12:04:10.604Z,3.58
2019-05-18T12:06:42.163Z,3.60
2019-05-18T12:09:13.563Z,2.72
2019-05-18T12:11:45.043Z,3.90
2019-05-18T12:14:16.595Z,3.12
2019-05-18T12:16:48.774Z,5.10
2019-05-18T12:19:20.267Z,2.70
2019-05-18T12:21:52.240Z,4.33
2019-05-18T12:24:24.352Z,3.30
2019-05-18T12:26:56.126Z,3.27
2019-05-18T12:29:27.711Z,3.33
2019-05-18T12:31:59.495Z,6.20
2019-05-18T12:34:31.035Z,3.02
2019-05-18T12:37:02.535Z,5.55
2019-05-18T12:39:33.960Z,3.90
2019-05-18T12:42:07.566Z,6.53
2019-05-18T12:45:14.189Z,3.77
2019-05-18T12:47:49.475Z,3.30
2019-05-18T12:50:25.388Z,3.35
2019-05-18T12:52:56.881Z,3.90
2019-05-18T12:55:28.377Z,4.05
2019-05-18T12:57:59.955Z,4.47
2019-05-18T13:00:32.898Z,3.00
2019-05-18T13:03:04.380Z,3.37
2019-05-18T13:05:35.887Z,2.47
2019-05-18T13:08:07.661Z,2.55
2019-05-18T13:10:39.461Z,2.50
2019-05-18T13:13:10.959Z,4.65
2019-05-18T13:15:42.551Z,3.87
2019-05-18T13:18:14.035Z,3.08
2019-05-18T13:20:48.078Z,3.37
2019-05-18T13:23:19.757Z,2.70
2019-05-18T13:25:51.559Z,3.62
2019-05-18T13:28:23.494Z,2.70
2019-05-18T13:30:54.934Z,3.15
2019-05-18T13:33:26.413Z,2.72
2019-05-18T13:35:57.954Z,1.95
2019-05-18T13:38:30.065Z,1.90
2019-05-18T13:41:01.561Z,2.02
2019-05-18T13:43:33.035Z,2.27
2019-05-18T13:46:04.821Z,2.10
2019-05-18T13:48:36.357Z,3.55
2019-05-18T13:51:08.102Z,4.20
2019-05-18T13:53:39.489Z,2.83
2019-05-18T13:56:11.043Z,2.35
2019-05-18T13:58:42.520Z,2.55
2019-05-18T14:01:14.000Z,2.62
2019-05-18T14:03:45.886Z,1.82
2019-05-18T14:06:17.219Z,2.02
2019-05-18T14:08:48.911Z,1.72
2019-05-18T14:11:20.438Z,2.58
2019-05-18T14:13:51.887Z,2.17
2019-05-18T14:16:23.343Z,3.85
2019-05-18T14:18:54.794Z,2.10
2019-05-18T14:21:26.190Z,2.35
2019-05-18T14:23:57.682Z,1.98
2019-05-18T14:26:29.221Z,2.60
2019-05-18T14:29:00.620Z,3.17
2019-05-18T14:31:32.112Z,2.27
2019-05-18T14:34:03.597Z,2.98
2019-05-18T14:36:35.070Z,3.30
2019-05-18T14:39:08.652Z,2.02
2019-05-18T14:41:42.526Z,1.70
2019-05-18T14:44:14.122Z,7.80
2019-05-18T14:46:45.612Z,10.72
2019-05-18T14:49:17.222Z,3.05
2019-05-18T14:51:48.623Z,2.62
2019-05-18T14:54:24.978Z,14.10
2019-05-18T14:56:53.305Z,3.85
2019-05-18T14:59:24.771Z,3.67
2019-05-18T15:01:56.269Z,1.52
2019-05-18T15:04:27.939Z,2.47
2019-05-18T15:06:59.352Z,3.15
2019-05-18T15:09:30.824Z,2.90
2019-05-18T15:12:02.293Z,2.60
2019-05-18T15:14:33.772Z,1.82
2019-05-18T15:17:05.235Z,1.40
2019-05-18T15:19:36.679Z,2.85
2019-05-18T15:22:08.989Z,2.08
2019-05-18T15:24:40.398Z,2.25
2019-05-18T15:27:11.975Z,3.27
2019-05-18T15:29:43.433Z,2.37
2019-05-18T15:32:14.870Z,1.40
2019-05-18T15:34:46.321Z,1.60
2019-05-18T15:37:17.776Z,2.20
2019-05-18T15:39:49.688Z,2.02
2019-05-18T15:42:21.173Z,2.17
2019-05-18T15:44:52.618Z,1.70
2019-05-18T15:47:24.087Z,3.08
2019-05-18T15:49:55.402Z,4.45
2019-05-18T15:52:26.803Z,2.65
2019-05-18T15:54:58.209Z,1.95
2019-05-18T15:57:30.244Z,3.45
2019-05-18T16:00:06.201Z,3.98
2019-05-18T16:02:35.595Z,2.92
2019-05-18T16:05:08.036Z,2.62
2019-05-18T16:07:39.839Z,4.85
2019-05-18T16:10:11.873Z,2.12
2019-05-18T16:12:43.363Z,5.15
2019-05-18T16:15:15.413Z,5.80
2019-05-18T16:17:46.979Z,6.17
2019-05-18T16:20:19.073Z,1.42
2019-05-18T16:22:50.601Z,1.65
2019-05-18T16:25:22.064Z,2.47
2019-05-18T16:27:53.471Z,6.53
2019-05-18T16:30:25.522Z,4.75
2019-05-18T16:32:56.983Z,2.95
2019-05-18T16:35:28.811Z,2.72
2019-05-18T16:38:00.285Z,1.40
2019-05-18T16:40:31.766Z,1.22
2019-05-18T16:43:03.435Z,3.65
2019-05-18T16:45:35.196Z,1.37
2019-05-18T16:48:06.668Z,3.33
2019-05-18T16:50:38.239Z,2.35
2019-05-18T16:53:09.991Z,3.00
2019-05-18T16:55:41.477Z,1.40
2019-05-18T16:58:13.121Z,3.08
2019-05-18T17:00:46.061Z,1.65
2019-05-18T17:03:17.919Z,1.15
2019-05-18T17:05:49.572Z,3.67
2019-05-18T17:08:21.325Z,1.80
2019-05-18T17:10:52.751Z,1.90
2019-05-18T17:13:24.387Z,1.20
2019-05-18T17:15:55.947Z,3.52
2019-05-18T17:18:27.406Z,2.50
2019-05-18T17:20:58.894Z,1.20
2019-05-18T17:23:30.214Z,1.45
2019-05-18T17:26:01.801Z,1.30
2019-05-18T17:28:33.513Z,1.87
2019-05-18T17:31:05.085Z,1.40
2019-05-18T17:33:36.604Z,1.30
2019-05-18T17:36:08.188Z,2.10
2019-05-18T17:38:40.330Z,1.80
2019-05-18T17:41:11.831Z,5.45
2019-05-18T17:43:43.308Z,1.50
2019-05-18T17:46:14.899Z,2.52
2019-05-18T17:48:46.475Z,1.80
2019-05-18T17:51:18.532Z,2.47
2019-05-18T17:53:49.928Z,2.55
2019-05-18T17:56:21.479Z,1.70
2019-05-18T17:58:53.086Z,2.70
2019-05-18T18:01:24.825Z,2.00
2019-05-18T18:03:56.292Z,1.90
2019-05-18T18:06:27.746Z,3.30
2019-05-18T18:08:59.272Z,1.93
2019-05-18T18:11:30.756Z,3.10
2019-05-18T18:14:02.234Z,2.87
2019-05-18T18:16:33.745Z,2.77
2019-05-18T18:19:05.501Z,3.40
2019-05-18T18:21:37.743Z,3.83
2019-05-18T18:24:09.377Z,3.37
2019-05-18T18:26:40.711Z,2.67
2019-05-18T18:29:12.208Z,3.23
2019-05-18T18:31:43.701Z,2.50
2019-05-18T18:34:15.196Z,2.43
2019-05-18T18:36:46.692Z,2.60
2019-05-18T18:39:18.269Z,2.73
2019-05-18T18:41:49.802Z,2.80
2019-05-18T18:44:21.243Z,3.17
2019-05-18T18:46:53.100Z,3.97
2019-05-18T18:49:25.244Z,2.47
2019-05-18T18:51:56.739Z,3.80
2019-05-18T18:54:28.169Z,3.30
2019-05-18T18:56:59.671Z,3.13
2019-05-18T18:59:31.160Z,2.97
2019-05-18T19:02:02.547Z,4.90
2019-05-18T19:04:33.947Z,4.97
2019-05-18T19:07:08.981Z,3.97
2019-05-18T19:09:39.000Z,4.03
2019-05-18T19:12:10.535Z,3.73
2019-05-18T19:14:42.039Z,3.07
2019-05-18T19:17:13.570Z,3.40
2019-05-18T19:19:45.011Z,6.17
2019-05-18T19:22:16.514Z,5.13
2019-05-18T19:24:47.917Z,3.70
2019-05-18T19:27:19.479Z,5.40
2019-05-18T19:29:51.977Z,5.90
2019-05-18T19:32:23.475Z,5.37
2019-05-18T19:34:55.006Z,4.80
2019-05-18T19:37:26.685Z,7.60
2019-05-18T19:39:58.218Z,4.50
2019-05-18T19:42:29.702Z,5.30
2019-05-18T19:45:01.236Z,5.77
2019-05-18T19:47:32.910Z,40.00
2019-05-18T19:50:04.573Z,43.13
2019-05-18T19:52:36.472Z,7.10
2019-05-18T19:55:08.838Z,5.13
2019-05-18T19:57:40.383Z,5.03
2019-05-18T20:00:12.831Z,6.37
2019-05-18T20:02:44.624Z,5.20
2019-05-18T20:05:16.134Z,5.53
2019-05-18T20:07:47.794Z,6.00
2019-05-18T20:10:19.743Z,5.77
2019-05-18T20:12:51.289Z,5.23
2019-05-18T20:15:22.895Z,5.93
2019-05-18T20:17:54.605Z,5.67
2019-05-18T20:20:26.021Z,5.73
2019-05-18T20:22:57.577Z,5.57
2019-05-18T20:25:29.124Z,6.70
2019-05-18T20:28:00.471Z,6.30
2019-05-18T20:30:31.937Z,5.63
2019-05-18T20:33:03.426Z,5.80
2019-05-18T20:35:34.977Z,5.53
2019-05-18T20:38:06.405Z,6.00
2019-05-18T20:40:37.767Z,6.00
2019-05-18T20:43:09.250Z,7.07
2019-05-18T20:45:41.044Z,5.40
2019-05-18T20:48:12.567Z,5.83
2019-05-18T20:50:43.996Z,6.37
2019-05-18T20:53:15.491Z,6.47
2019-05-18T20:55:47.393Z,5.60
2019-05-18T20:58:18.962Z,5.80
2019-05-18T21:00:50.462Z,5.50
2019-05-18T21:03:21.946Z,5.30
2019-05-18T21:05:53.411Z,5.30
2019-05-18T21:08:24.919Z,5.73
2019-05-18T21:10:56.292Z,5.70
2019-05-18T21:13:27.724Z,7.23
2019-05-18T21:15:59.204Z,6.23
2019-05-18T21:18:30.685Z,8.53
2019-05-18T21:21:02.024Z,7.03
2019-05-18T21:23:33.845Z,5.87
2019-05-18T21:26:05.330Z,5.57
2019-05-18T21:28:36.853Z,5.90
2019-05-18T21:31:08.376Z,5.90
2019-05-18T21:33:39.852Z,6.20
2019-05-18T21:36:11.352Z,6.50
2019-05-18T21:38:42.858Z,6.33
2019-05-18T21:41:14.338Z,5.97
2019-05-18T21:43:46.097Z,5.20
2019-05-18T21:46:17.787Z,6.17
2019-05-18T21:48:49.269Z,5.07
2019-05-18T21:51:20.789Z,7.93
2019-05-18T21:53:52.634Z,5.27
2019-05-18T21:56:24.515Z,5.40
2019-05-18T21:59:10.569Z,7.10
2019-05-18T22:01:29.782Z,5.37
2019-05-18T22:04:01.606Z,7.10
2019-05-18T22:06:33.353Z,6.10
2019-05-18T22:09:06.381Z,7.00
2019-05-18T22:11:38.033Z,6.13
2019-05-18T22:14:09.527Z,5.73
2019-05-18T22:16:40.959Z,5.70
2019-05-18T22:19:12.899Z,5.07
2019-05-18T22:21:44.285Z,7.07
2019-05-18T22:24:15.805Z,5.60
2019-05-18T22:26:47.227Z,7.50
2019-05-18T22:29:19.061Z,5.10
2019-05-18T22:31:50.602Z,5.77
2019-05-18T22:34:21.987Z,6.07
2019-05-18T22:36:53.496Z,5.83
2019-05-18T22:39:26.647Z,6.53
2019-05-18T22:41:58.355Z,6.20
2019-05-18T22:44:30.192Z,8.77
2019-05-18T22:47:01.555Z,7.57
2019-05-18T22:49:32.979Z,6.10
2019-05-18T22:52:04.660Z,6.53
2019-05-18T22:54:36.443Z,7.30
2019-05-18T22:57:08.278Z,8.23
2019-05-18T22:59:39.768Z,8.03
2019-05-18T23:02:11.681Z,7.07
2019-05-18T23:04:43.184Z,7.53
2019-05-18T23:07:14.675Z,7.27
2019-05-18T23:09:46.063Z,7.00
2019-05-18T23:12:17.493Z,7.37
2019-05-18T23:14:48.905Z,8.07
2019-05-18T23:17:20.326Z,7.23
2019-05-18T23:19:52.933Z,8.63
2019-05-18T23:22:24.284Z,8.20
2019-05-18T23:24:55.754Z,7.87
2019-05-18T23:27:27.244Z,8.47
2019-05-18T23:29:58.776Z,9.37
2019-05-18T23:32:30.287Z,9.17
2019-05-18T23:35:01.765Z,9.27
2019-05-18T23:37:33.275Z,10.57
2019-05-18T23:40:05.229Z,9.93
2019-05-18T23:42:36.707Z,11.10
2019-05-18T23:45:10.323Z,10.47
2019-05-18T23:47:41.828Z,9.50
2019-05-18T23:50:13.673Z,12.63
2019-05-18T23:52:45.152Z,9.00
2019-05-18T23:55:16.752Z,11.10
2019-05-18T23:57:48.249Z,10.27
